Time;durP1;ratioP1;P1;durP2;ratioP2;P2;SDS_P1;SDS_P2;PMS_P1;PMS_P2;Temp;Humidity;BMP_temperature;BMP_pressure;BME280_temperature;BME280_humidity;BME280_pressure;Samples;Min_cycle;Max_cycle;Signal;HPM_P1;HPM_P2
2023/07/12 00:00:44;;;;;;;1.90;0.73;;;;;;;30.08;39.00;100638.06;5053349;28;20071;-61
2023/07/12 00:03:10;;;;;;;2.95;0.68;;;;;;;30.05;39.29;100619.25;5054893;28;20029;-62
2023/07/12 00:05:35;;;;;;;1.52;0.80;;;;;;;30.02;39.80;100631.66;5037373;28;20028;-61
2023/07/12 00:08:03;;;;;;;1.05;0.60;;;;;;;29.97;39.93;100628.88;5021025;28;20036;-62
2023/07/12 00:10:35;;;;;;;2.83;0.70;;;;;;;29.89;39.37;100629.34;5053986;28;20031;-61
2023/07/12 00:13:01;;;;;;;1.02;0.52;;;;;;;29.83;39.41;100624.84;5055105;28;20496;-61
2023/07/12 00:15:30;;;;;;;3.08;0.80;;;;;;;29.76;39.59;100606.81;5037164;28;20434;-62
2023/07/12 00:17:55;;;;;;;1.00;0.70;;;;;;;29.71;39.30;100609.47;5037087;28;20021;-61
2023/07/12 00:20:20;;;;;;;1.33;0.70;;;;;;;29.63;40.04;100618.22;5053867;28;20444;-61
2023/07/12 00:22:46;;;;;;;1.52;0.60;;;;;;;29.57;39.83;100617.34;5055211;28;20550;-61
2023/07/12 00:25:16;;;;;;;1.23;0.85;;;;;;;29.52;39.79;100631.09;5054900;28;20041;-61
2023/07/12 00:27:41;;;;;;;5.72;0.85;;;;;;;29.47;40.25;100630.22;5053904;28;20043;-61
2023/07/12 00:30:34;;;;;;;2.15;0.70;;;;;;;29.42;40.61;100634.59;5036963;28;20033;-62
2023/07/12 00:33:03;;;;;;;;;;;;;;;29.38;40.68;100654.66;5052848;28;20029;-62
2023/07/12 00:35:30;;;;;;;3.17;0.80;;;;;;;29.32;40.22;100662.03;5053579;28;19912;-62
2023/07/12 00:38:00;;;;;;;0.90;0.40;;;;;;;29.29;39.79;100634.97;5053449;28;20025;-62
2023/07/12 00:40:53;;;;;;;1.38;0.57;;;;;;;29.28;40.51;100629.72;5035183;28;20378;-62
2023/07/12 00:43:43;;;;;;;3.25;0.90;;;;;;;29.26;40.07;100645.66;5039526;28;20123;-61
2023/07/12 00:46:33;;;;;;;1.85;1.13;;;;;;;29.27;40.28;100652.88;5034551;28;20033;-62
2023/07/12 00:48:58;;;;;;;1.67;0.73;;;;;;;29.27;41.05;100659.22;5029898;28;20046;-61
2023/07/12 00:51:27;;;;;;;1.48;0.80;;;;;;;29.29;41.46;100647.91;5033561;28;20043;-61
2023/07/12 00:53:53;;;;;;;3.78;1.05;;;;;;;29.29;41.12;100657.03;5050787;28;20566;-62
2023/07/12 00:56:19;;;;;;;1.95;0.98;;;;;;;29.32;40.36;100658.44;5053069;28;20029;-62
2023/07/12 00:58:46;;;;;;;1.60;0.90;;;;;;;29.30;40.41;100658.72;5053186;28;20036;-61
2023/07/12 01:01:13;;;;;;;1.42;0.40;;;;;;;29.31;40.35;100646.56;5053039;28;20028;-62
2023/07/12 01:03:41;;;;;;;1.85;0.60;;;;;;;29.30;41.15;100639.41;5035772;28;20100;-61
2023/07/12 01:06:09;;;;;;;0.98;0.50;;;;;;;29.32;40.66;100645.47;5034572;28;20032;-61
2023/07/12 01:08:35;;;;;;;1.25;0.75;;;;;;;29.32;41.02;100673.09;5033207;28;20021;-61
2023/07/12 01:11:02;;;;;;;1.55;0.80;;;;;;;29.29;41.01;100667.25;5032110;28;20555;-61
2023/07/12 01:13:30;;;;;;;1.95;0.85;;;;;;;29.30;40.63;100680.81;5052677;28;20366;-61
2023/07/12 01:15:58;;;;;;;1.17;0.85;;;;;;;29.31;40.12;100687.97;5052923;28;20480;-62
2023/07/12 01:18:23;;;;;;;1.20;0.88;;;;;;;29.30;40.52;100680.81;5036135;28;20029;-62
2023/07/12 01:21:13;;;;;;;0.95;0.52;;;;;;;29.26;40.69;100667.75;5052979;28;20040;-61
2023/07/12 01:23:39;;;;;;;5.35;0.93;;;;;;;29.25;40.76;100693.69;5053535;28;20056;-61
2023/07/12 01:26:17;;;;;;;2.10;0.70;;;;;;;29.23;41.30;100699.44;5052702;28;20037;-61
2023/07/12 01:28:42;;;;;;;0.95;0.50;;;;;;;29.21;40.82;100682.28;5053427;28;20041;-61
2023/07/12 01:31:08;;;;;;;3.75;0.70;;;;;;;29.18;40.62;100682.78;5052424;28;20032;-61
2023/07/12 01:33:33;;;;;;;5.38;1.05;;;;;;;29.18;40.56;100713.16;5054431;28;20104;-61
2023/07/12 01:35:58;;;;;;;1.10;0.77;;;;;;;29.15;41.03;100721.94;5056015;28;20025;-62
2023/07/12 01:38:24;;;;;;;1.42;0.85;;;;;;;29.13;41.14;100724.13;5056316;28;20037;-63
2023/07/12 01:40:49;;;;;;;4.53;0.95;;;;;;;29.10;40.60;100710.84;5056277;28;20056;-61
2023/07/12 01:43:14;;;;;;;1.23;0.70;;;;;;;29.06;41.49;100711.59;5041786;28;20025;-62
2023/07/12 01:45:40;;;;;;;2.83;0.70;;;;;;;29.00;40.45;100690.53;5059272;28;20033;-61
2023/07/12 01:48:05;;;;;;;5.88;1.00;;;;;;;28.96;40.87;100723.31;5057011;28;20056;-61
2023/07/12 01:50:31;;;;;;;1.45;0.80;;;;;;;28.91;41.17;100756.34;5056188;28;20033;-61
2023/07/12 01:52:56;;;;;;;2.70;0.80;;;;;;;28.86;40.78;100786.59;5057205;28;20034;-61
2023/07/12 01:55:22;;;;;;;2.15;0.70;;;;;;;28.81;40.76;100781.00;5054909;28;20126;-61
2023/07/12 01:57:47;;;;;;;4.00;1.20;;;;;;;28.69;40.60;100714.06;5054473;28;20033;-60
2023/07/12 02:00:13;;;;;;;2.40;0.80;;;;;;;28.60;41.63;100798.22;5055453;28;20056;-60
2023/07/12 02:02:39;;;;;;;1.05;0.60;;;;;;;28.43;41.39;100794.59;5053392;28;20507;-61
2023/07/12 02:05:06;;;;;;;2.40;0.57;;;;;;;28.21;41.00;100770.50;5035405;28;20056;-61
2023/07/12 02:07:32;;;;;;;2.10;0.98;;;;;;;28.06;41.62;100758.34;5053215;28;20111;-61
2023/07/12 02:10:16;;;;;;;4.53;0.80;;;;;;;27.89;41.49;100754.69;5053137;28;20060;-61
2023/07/12 02:12:41;;;;;;;2.63;0.90;;;;;;;27.71;41.44;100773.03;5053545;28;20033;-61
2023/07/12 02:15:08;;;;;;;2.00;0.60;;;;;;;27.60;42.04;100770.31;5052719;28;20032;-61
2023/07/12 02:17:33;;;;;;;2.33;0.98;;;;;;;27.55;42.27;100773.78;5051838;28;20025;-61
2023/07/12 02:19:59;;;;;;;2.70;0.88;;;;;;;27.50;41.92;100781.09;5053403;28;20519;-61
2023/07/12 02:22:24;;;;;;;4.53;1.20;;;;;;;27.50;42.00;100783.84;5053058;28;20111;-61
2023/07/12 02:24:50;;;;;;;5.13;0.85;;;;;;;27.46;41.74;100791.75;5033497;28;20034;-61
2023/07/12 02:27:15;;;;;;;4.22;0.88;;;;;;;27.39;42.25;100798.41;5031210;28;20400;-61
2023/07/12 02:29:41;;;;;;;3.10;0.88;;;;;;;27.28;42.28;100790.97;5031678;28;20072;-64
2023/07/12 02:32:06;;;;;;;1.80;0.88;;;;;;;27.13;42.96;100789.56;5014844;28;20032;-62
2023/07/12 02:34:32;;;;;;;2.97;0.70;;;;;;;26.99;43.17;100768.88;5032573;28;20374;-61
2023/07/12 02:36:57;;;;;;;2.95;0.90;;;;;;;26.93;43.48;100753.31;5032987;28;20139;-62
2023/07/12 02:39:22;;;;;;;3.70;1.23;;;;;;;26.79;43.23;100760.13;5015009;28;20091;-61
2023/07/12 02:41:48;;;;;;;4.50;0.88;;;;;;;26.55;44.00;100767.44;5032668;28;20041;-62
2023/07/12 02:44:13;;;;;;;2.33;0.90;;;;;;;26.34;44.23;100789.13;5031391;28;20026;-62
2023/07/12 02:46:38;;;;;;;6.20;1.20;;;;;;;26.11;44.58;100799.97;5014784;28;20040;-62
2023/07/12 02:49:04;;;;;;;4.28;1.20;;;;;;;25.88;44.62;100796.03;5032481;28;20087;-62
2023/07/12 02:51:29;;;;;;;2.95;0.98;;;;;;;25.70;44.81;100773.25;5032611;28;20428;-62
2023/07/12 02:53:54;;;;;;;0.85;0.68;;;;;;;25.55;45.09;100756.31;5031321;28;20076;-62
2023/07/12 02:56:20;;;;;;;1.42;0.77;;;;;;;25.41;45.72;100744.63;5031234;28;20409;-63
2023/07/12 02:58:45;;;;;;;2.75;1.10;;;;;;;25.31;45.85;100736.09;5031358;28;20121;-62
2023/07/12 03:01:11;;;;;;;3.72;1.10;;;;;;;25.19;45.98;100718.72;5031297;28;20107;-63
2023/07/12 03:03:36;;;;;;;1.98;0.77;;;;;;;25.10;46.35;100704.44;5031235;28;20076;-63
2023/07/12 03:06:07;;;;;;;3.58;0.90;;;;;;;25.04;46.01;100715.50;5018342;28;20038;-63
2023/07/12 03:08:32;;;;;;;3.65;0.98;;;;;;;24.96;46.03;100715.81;5035071;28;20088;-63
2023/07/12 03:10:58;;;;;;;3.90;1.02;;;;;;;24.86;46.74;100717.16;5034859;28;20488;-62
2023/07/12 03:13:23;;;;;;;2.88;1.25;;;;;;;24.78;46.96;100730.25;5036282;28;20565;-62
2023/07/12 03:15:49;;;;;;;0.98;0.80;;;;;;;24.73;46.61;100747.38;5034991;28;20112;-62
2023/07/12 03:18:14;;;;;;;1.70;0.90;;;;;;;24.69;46.79;100734.34;5034955;28;20417;-62
2023/07/12 03:20:39;;;;;;;4.03;0.80;;;;;;;24.66;46.94;100724.66;5035844;28;20080;-62
2023/07/12 03:23:05;;;;;;;1.75;0.95;;;;;;;24.65;47.50;100714.75;5035960;28;20072;-62
2023/07/12 03:25:31;;;;;;;2.30;0.98;;;;;;;24.65;47.66;100705.72;5036174;28;20036;-62
2023/07/12 03:27:56;;;;;;;4.72;1.42;;;;;;;24.68;47.51;100689.66;5051951;28;20404;-61
2023/07/12 03:30:22;;;;;;;6.38;1.23;;;;;;;24.72;47.33;100701.84;5037995;28;20029;-61
2023/07/12 03:32:47;;;;;;;2.33;1.55;;;;;;;24.69;47.93;100713.25;5054399;28;20488;-61
2023/07/12 03:35:13;;;;;;;3.80;1.45;;;;;;;24.71;47.89;100727.56;5037869;28;20033;-61
2023/07/12 03:37:38;;;;;;;3.72;0.95;;;;;;;24.71;47.87;100738.53;5054404;28;20076;-63
2023/07/12 03:40:04;;;;;;;3.35;1.73;;;;;;;24.74;48.10;100743.56;5054345;28;20037;-61
2023/07/12 03:42:29;;;;;;;2.63;1.10;;;;;;;24.78;47.92;100738.47;5054468;28;20033;-62
2023/07/12 03:44:55;;;;;;;1.02;0.95;;;;;;;24.80;48.13;100748.19;5037786;28;20031;-61
2023/07/12 03:47:20;;;;;;;1.60;0.70;;;;;;;24.83;48.47;100753.22;5054171;28;20060;-61
2023/07/12 03:49:45;;;;;;;2.08;0.82;;;;;;;24.85;48.24;100751.09;5054166;28;20063;-62
2023/07/12 03:52:11;;;;;;;4.03;0.90;;;;;;;24.85;48.32;100753.81;5055440;28;20025;-62
2023/07/12 03:54:36;;;;;;;3.25;1.00;;;;;;;24.90;48.53;100764.94;5054200;28;20064;-62
2023/07/12 03:57:02;;;;;;;6.45;0.70;;;;;;;24.93;48.07;100765.59;5055322;28;20033;-61
2023/07/12 03:59:27;;;;;;;1.45;0.80;;;;;;;24.96;47.83;100768.69;5055271;28;20029;-60
2023/07/12 04:01:52;;;;;;;1.63;0.80;;;;;;;24.98;48.30;100761.09;5054030;28;20037;-61
2023/07/12 04:04:18;;;;;;;1.90;0.75;;;;;;;25.03;48.15;100771.38;5037434;28;20037;-60
2023/07/12 04:06:43;;;;;;;1.45;0.80;;;;;;;25.07;47.80;100765.22;5055240;28;20449;-61
2023/07/12 04:09:09;;;;;;;2.83;0.88;;;;;;;25.11;48.11;100760.13;5037386;28;20044;-61
2023/07/12 04:11:37;;;;;;;1.67;0.77;;;;;;;25.20;47.91;100769.75;5055121;28;20036;-61
2023/07/12 04:14:02;;;;;;;4.82;1.10;;;;;;;25.28;47.83;100777.69;5053800;28;20032;-61
2023/07/12 04:16:29;;;;;;;1.15;0.60;;;;;;;25.34;47.82;100776.78;5036502;28;20454;-61
2023/07/12 04:18:54;;;;;;;2.72;0.75;;;;;;;25.44;47.73;100771.59;5053818;28;20035;-61
2023/07/12 04:21:20;;;;;;;2.15;1.63;;;;;;;25.50;47.55;100775.38;5037006;28;20401;-62
2023/07/12 04:23:47;;;;;;;2.00;0.70;;;;;;;25.53;47.80;100778.50;5053691;28;20036;-61
2023/07/12 04:26:13;;;;;;;0.80;0.75;;;;;;;25.54;47.37;100769.22;5054927;28;20510;-61
2023/07/12 04:28:39;;;;;;;1.25;1.02;;;;;;;25.58;47.59;100778.66;5053431;28;20045;-62
2023/07/12 04:31:08;;;;;;;0.82;0.57;;;;;;;25.64;47.72;100783.22;5053539;28;20048;-62
2023/07/12 04:33:33;;;;;;;3.00;0.60;;;;;;;25.66;47.23;100783.84;5036819;28;20040;-62
2023/07/12 04:36:06;;;;;;;1.52;0.55;;;;;;;25.68;47.16;100789.94;5036727;28;20069;-61
2023/07/12 04:38:32;;;;;;;1.85;0.80;;;;;;;25.70;47.34;100793.28;5054756;28;20033;-61
2023/07/12 04:40:57;;;;;;;1.40;0.52;;;;;;;25.75;47.16;100793.44;5053395;28;20037;-62
2023/07/12 04:43:22;;;;;;;1.95;0.60;;;;;;;25.79;47.56;100797.41;5053776;28;20408;-62
2023/07/12 04:45:48;;;;;;;1.70;0.60;;;;;;;25.82;47.08;100796.97;5053251;28;20029;-62
2023/07/12 04:48:14;;;;;;;2.58;1.02;;;;;;;25.83;47.18;100795.03;5052997;28;20076;-62
2023/07/12 04:50:39;;;;;;;1.80;1.10;;;;;;;25.86;47.06;100809.16;5036632;28;20037;-62
2023/07/12 04:53:05;;;;;;;2.35;0.88;;;;;;;25.87;47.30;100805.34;5052951;28;20065;-63
2023/07/12 04:55:30;;;;;;;1.48;0.60;;;;;;;25.86;47.28;100820.13;5036406;28;20423;-62
2023/07/12 04:57:56;;;;;;;2.05;0.73;;;;;;;25.85;47.81;100815.69;5036085;28;20025;-62
2023/07/12 05:00:25;;;;;;;1.77;0.70;;;;;;;25.86;46.87;100822.03;5052908;28;20095;-62
2023/07/12 05:02:52;;;;;;;3.85;0.70;;;;;;;25.87;46.99;100820.97;5052391;28;20045;-62
2023/07/12 05:05:18;;;;;;;3.72;0.82;;;;;;;25.84;46.79;100833.25;5052901;28;20067;-61
2023/07/12 05:07:43;;;;;;;2.45;0.90;;;;;;;25.80;47.04;100831.16;5053993;28;20021;-62
2023/07/12 05:10:10;;;;;;;1.50;0.70;;;;;;;25.78;47.26;100839.66;5052932;28;20108;-62
2023/07/12 05:12:36;;;;;;;1.25;0.70;;;;;;;25.77;47.01;100832.47;5052752;28;20044;-62
2023/07/12 05:15:03;;;;;;;5.15;0.88;;;;;;;25.80;47.20;100832.00;5052587;28;20542;-61
2023/07/12 05:17:29;;;;;;;3.78;1.10;;;;;;;25.85;47.37;100821.19;5052734;28;20552;-62
2023/07/12 05:19:54;;;;;;;2.97;0.95;;;;;;;25.91;46.82;100823.00;5053729;28;20108;-62
2023/07/12 05:22:20;;;;;;;2.13;1.00;;;;;;;25.94;46.24;100822.56;5053450;28;20112;-63
2023/07/12 05:24:45;;;;;;;4.60;1.15;;;;;;;25.96;46.74;100825.91;5053656;28;20045;-62
2023/07/12 05:27:11;;;;;;;1.42;1.00;;;;;;;25.99;46.70;100836.44;5052984;28;20488;-61
2023/07/12 05:29:37;;;;;;;1.13;0.88;;;;;;;26.04;46.74;100839.34;5052892;28;20061;-63
2023/07/12 05:32:02;;;;;;;2.90;0.85;;;;;;;26.11;46.56;100846.63;5052206;28;20029;-62
2023/07/12 05:34:28;;;;;;;3.55;1.08;;;;;;;26.14;46.22;100848.97;5053180;28;20033;-63
2023/07/12 05:36:53;;;;;;;2.33;1.10;;;;;;;26.20;46.35;100848.03;5052142;28;20029;-62
2023/07/12 05:39:18;;;;;;;3.53;1.30;;;;;;;26.27;46.00;100859.81;5035618;28;20033;-61
2023/07/12 05:41:44;;;;;;;3.85;1.38;;;;;;;26.32;46.11;100857.19;5052173;28;20037;-62
2023/07/12 05:44:09;;;;;;;1.65;1.05;;;;;;;26.36;45.95;100863.88;5052029;28;20059;-61
2023/07/12 05:46:36;;;;;;;2.85;1.10;;;;;;;26.49;45.91;100869.22;5052121;28;20385;-63
2023/07/12 05:49:01;;;;;;;2.88;0.93;;;;;;;26.58;46.49;100870.56;5053333;28;22917;-61
2023/07/12 05:51:27;;;;;;;1.52;1.15;;;;;;;26.68;46.08;100873.59;5052021;28;20491;-62
2023/07/12 05:53:52;;;;;;;4.95;1.10;;;;;;;26.75;45.41;100882.56;5052232;28;20159;-62
2023/07/12 05:56:18;;;;;;;4.57;0.90;;;;;;;26.74;46.12;100888.31;5052320;28;20082;-63
2023/07/12 05:58:44;;;;;;;2.97;1.70;;;;;;;26.93;45.76;100892.72;5052012;28;20025;-61
2023/07/12 06:01:09;;;;;;;0.98;0.75;;;;;;;27.01;45.43;100895.97;5053294;28;20037;-60
2023/07/12 06:03:35;;;;;;;6.28;1.10;;;;;;;27.04;45.32;100892.75;5051808;28;20048;-60
2023/07/12 06:06:05;;;;;;;2.40;1.08;;;;;;;27.18;44.97;100893.38;5052158;28;20448;-60
2023/07/12 06:08:30;;;;;;;3.35;1.40;;;;;;;27.29;45.08;100902.72;5052886;28;20040;-60
2023/07/12 06:10:55;;;;;;;5.45;1.30;;;;;;;27.31;44.87;100906.06;5052900;28;20041;-61
2023/07/12 06:13:21;;;;;;;2.75;0.95;;;;;;;27.27;45.05;100899.38;5053393;28;20407;-61
2023/07/12 06:15:46;;;;;;;2.78;1.45;;;;;;;27.27;45.31;100899.38;5053572;28;20094;-61
2023/07/12 06:18:11;;;;;;;4.30;1.27;;;;;;;27.27;44.48;100904.88;5051978;28;20037;-61
2023/07/12 06:20:37;;;;;;;4.18;1.38;;;;;;;27.26;45.04;100911.44;5036277;28;20032;-61
2023/07/12 06:23:02;;;;;;;2.70;1.10;;;;;;;27.26;44.98;100908.69;5055488;28;20029;-61
2023/07/12 06:25:28;;;;;;;3.42;1.20;;;;;;;27.28;44.82;100915.63;5052350;28;20036;-62
2023/07/12 06:27:54;;;;;;;3.85;1.25;;;;;;;27.26;44.59;100919.69;5052935;28;20032;-62
2023/07/12 06:30:19;;;;;;;3.13;1.20;;;;;;;27.21;44.99;100927.81;5034942;28;20531;-62
2023/07/12 06:32:44;;;;;;;5.43;1.30;;;;;;;27.15;44.29;100930.44;5051795;28;20029;-60
2023/07/12 06:35:10;;;;;;;7.18;1.77;;;;;;;27.08;44.32;100929.69;5052940;28;20041;-60
2023/07/12 06:37:35;;;;;;;3.50;1.10;;;;;;;27.06;44.53;100929.09;5052652;28;20397;-60
2023/07/12 06:40:01;;;;;;;1.58;1.02;;;;;;;27.03;43.94;100937.81;5052544;28;20029;-61
2023/07/12 06:42:26;;;;;;;5.90;2.03;;;;;;;27.01;44.13;100944.63;5052510;28;20021;-60
2023/07/12 06:44:52;;;;;;;1.35;0.80;;;;;;;26.94;44.63;100930.16;5051357;28;20036;-60
2023/07/12 06:47:17;;;;;;;3.75;1.77;;;;;;;27.01;43.85;100955.63;5052360;28;20057;-62
2023/07/12 06:49:42;;;;;;;4.20;1.02;;;;;;;27.00;43.95;100954.78;5052538;28;20037;-60
2023/07/12 06:52:10;;;;;;;5.22;1.17;;;;;;;26.98;43.97;100945.09;5051266;28;20477;-60
2023/07/12 06:54:36;;;;;;;4.20;1.35;;;;;;;26.98;44.42;100950.59;5052508;28;20093;-60
2023/07/12 06:57:01;;;;;;;4.82;1.35;;;;;;;27.00;44.14;100959.44;5051085;28;20028;-61
2023/07/12 06:59:26;;;;;;;1.35;0.95;;;;;;;27.02;43.68;100955.41;5052784;28;20095;-61
2023/07/12 07:01:52;;;;;;;1.58;1.00;;;;;;;27.03;44.50;100957.06;5050986;28;20041;-62
2023/07/12 07:04:18;;;;;;;3.22;1.00;;;;;;;26.99;43.74;100964.13;5034568;28;20029;-62
2023/07/12 07:06:44;;;;;;;3.80;1.00;;;;;;;27.03;44.25;100959.81;5052336;28;20060;-62
2023/07/12 07:09:10;;;;;;;3.55;1.30;;;;;;;27.08;44.25;100959.16;5034570;28;20106;-61
2023/07/12 07:11:35;;;;;;;4.10;1.00;;;;;;;27.11;44.28;100962.25;5051305;28;20087;-61
2023/07/12 07:14:00;;;;;;;3.65;0.90;;;;;;;27.13;43.92;100960.13;5052452;28;20029;-61
2023/07/12 07:16:26;;;;;;;7.57;1.15;;;;;;;27.16;43.81;100958.81;5051133;28;20083;-61
2023/07/12 07:18:51;;;;;;;1.40;0.80;;;;;;;27.25;44.22;100962.06;5052284;28;20029;-61
2023/07/12 07:21:17;;;;;;;3.55;1.30;;;;;;;27.34;44.33;100964.22;5052276;28;20044;-61
2023/07/12 07:23:43;;;;;;;3.55;1.40;;;;;;;27.34;43.42;100961.47;5051196;28;20055;-61
2023/07/12 07:26:10;;;;;;;4.20;1.02;;;;;;;27.46;43.42;100964.28;5051281;28;20060;-61
2023/07/12 07:28:37;;;;;;;4.18;1.00;;;;;;;27.52;43.12;100957.84;5050750;28;20448;-61
2023/07/12 07:31:03;;;;;;;4.13;1.80;;;;;;;27.57;42.70;100971.72;5050854;28;20480;-61
2023/07/12 07:33:28;;;;;;;2.38;0.82;;;;;;;27.64;42.54;100966.94;5051232;28;20060;-61
2023/07/12 07:35:55;;;;;;;4.13;0.88;;;;;;;27.76;42.26;100978.81;5051167;28;20029;-61
2023/07/12 07:38:25;;;;;;;1.73;1.00;;;;;;;27.86;42.99;100987.34;5052293;28;20117;-61
2023/07/12 07:40:51;;;;;;;4.45;0.85;;;;;;;27.94;42.44;100989.72;5052369;28;20078;-61
2023/07/12 07:43:17;;;;;;;3.15;1.10;;;;;;;28.00;42.76;100987.94;5051581;28;20029;-61
2023/07/12 07:45:42;;;;;;;1.70;0.80;;;;;;;28.06;42.36;100993.34;5052598;28;20032;-62
2023/07/12 07:48:07;;;;;;;1.40;0.70;;;;;;;28.05;42.55;100991.69;5050917;28;20044;-61
2023/07/12 07:50:33;;;;;;;3.70;0.80;;;;;;;28.05;42.05;100990.84;5052919;28;20044;-61
2023/07/12 07:52:58;;;;;;;4.15;1.13;;;;;;;28.09;41.38;101000.28;5054507;28;20400;-61
2023/07/12 07:55:26;;;;;;;2.63;0.95;;;;;;;28.11;42.02;101001.72;5054774;28;20033;-61
2023/07/12 07:57:51;;;;;;;1.52;1.13;;;;;;;28.11;42.13;100993.44;5038104;28;20118;-61
2023/07/12 08:00:17;;;;;;;2.28;0.77;;;;;;;28.15;41.65;100996.56;5055521;28;20500;-61
2023/07/12 08:02:43;;;;;;;2.75;1.35;;;;;;;28.14;41.82;100997.66;5054284;28;20030;-61
2023/07/12 08:05:10;;;;;;;5.70;0.93;;;;;;;28.10;41.85;101000.06;5054080;28;20021;-62
2023/07/12 08:07:41;;;;;;;4.05;1.30;;;;;;;28.08;41.60;100996.72;5055119;28;20040;-61
2023/07/12 08:10:09;;;;;;;3.30;1.00;;;;;;;28.06;42.31;100998.00;5054407;28;20064;-61
2023/07/12 08:12:34;;;;;;;3.83;0.85;;;;;;;28.08;41.54;100999.47;5055367;28;20036;-61
2023/07/12 08:14:59;;;;;;;5.07;1.10;;;;;;;28.11;41.20;101004.47;5054998;28;20030;-61
2023/07/12 08:17:25;;;;;;;4.57;1.15;;;;;;;28.17;41.22;101000.75;5055173;28;20381;-61
2023/07/12 08:19:52;;;;;;;5.40;1.33;;;;;;;28.40;40.68;101001.81;5053925;28;20029;-61
2023/07/12 08:22:19;;;;;;;6.05;0.95;;;;;;;28.70;40.93;100995.06;5053960;28;20040;-61
2023/07/12 08:24:45;;;;;;;7.07;1.60;;;;;;;29.07;40.03;100990.03;5055192;28;20035;-61
2023/07/12 08:27:11;;;;;;;6.13;1.08;;;;;;;29.56;39.53;100995.91;5055010;28;20033;-60
2023/07/12 08:29:37;;;;;;;2.20;0.77;;;;;;;30.06;39.10;100988.50;5053746;28;20059;-60
2023/07/12 08:32:03;;;;;;;4.10;1.00;;;;;;;30.13;39.05;100983.59;5053880;28;20497;-60
2023/07/12 08:34:28;;;;;;;3.30;1.02;;;;;;;30.46;39.31;100986.31;5037188;28;20026;-60
2023/07/12 08:36:53;;;;;;;5.40;1.02;;;;;;;30.47;39.17;100996.28;5053519;28;20033;-60
2023/07/12 08:39:19;;;;;;;4.32;0.88;;;;;;;30.67;38.75;100994.88;5053357;28;20404;-61
2023/07/12 08:41:44;;;;;;;4.55;0.95;;;;;;;30.63;39.09;101004.81;5054940;28;20408;-61
2023/07/12 08:44:13;;;;;;;3.15;0.80;;;;;;;30.54;38.73;101008.00;5055083;28;20052;-60
2023/07/12 08:46:42;;;;;;;4.07;0.75;;;;;;;30.48;38.60;100997.13;5053407;28;20167;-60
2023/07/12 08:49:08;;;;;;;1.85;0.70;;;;;;;30.43;38.14;101005.38;5036573;28;20060;-60
2023/07/12 08:51:39;;;;;;;2.13;0.88;;;;;;;30.31;38.13;101002.69;5053363;28;20061;-60
2023/07/12 08:54:04;;;;;;;2.30;0.75;;;;;;;30.19;38.24;101010.22;5053358;28;20033;-60
2023/07/12 08:56:30;;;;;;;3.10;0.88;;;;;;;30.09;38.67;101004.56;5053299;28;20029;-60
2023/07/12 08:58:56;;;;;;;3.17;1.05;;;;;;;30.06;38.05;101009.75;5054665;28;20083;-61
2023/07/12 09:01:45;;;;;;;1.73;1.08;;;;;;;30.02;38.51;101006.66;5054640;28;20401;-60
2023/07/12 09:04:21;;;;;;;0.90;0.60;;;;;;;30.52;37.83;101010.19;5036536;28;20037;-60
2023/07/12 09:06:46;;;;;;;3.75;1.05;;;;;;;30.92;36.81;101009.03;5054218;28;20103;-60
2023/07/12 09:09:11;;;;;;;4.60;0.88;;;;;;;31.37;36.80;101000.41;5052789;28;20056;-61
2023/07/12 09:11:37;;;;;;;5.57;0.73;;;;;;;31.08;37.33;101003.44;5052866;28;20093;-61
2023/07/12 09:14:02;;;;;;;3.42;0.88;;;;;;;30.97;37.02;100995.28;5052626;28;20029;-60
2023/07/12 09:16:35;;;;;;;2.85;0.73;;;;;;;31.34;36.60;100993.47;5054245;28;20025;-60
2023/07/12 09:19:14;;;;;;;7.10;1.35;;;;;;;31.80;36.04;100988.38;5053774;28;20496;-60
2023/07/12 09:21:39;;;;;;;2.10;0.57;;;;;;;32.46;36.28;100998.81;5054280;28;20028;-60
2023/07/12 09:24:13;;;;;;;1.63;0.90;;;;;;;32.51;35.77;101000.78;5054420;28;20086;-61
2023/07/12 09:26:39;;;;;;;2.63;0.50;;;;;;;32.36;36.56;100993.19;5053048;28;20487;-61
2023/07/12 09:29:15;;;;;;;6.65;0.82;;;;;;;32.51;35.72;100998.00;5053933;28;20033;-60
2023/07/12 09:31:41;;;;;;;2.10;0.73;;;;;;;33.17;34.52;100990.78;5053221;28;20110;-61
2023/07/12 09:34:19;;;;;;;2.67;0.63;;;;;;;33.58;33.65;100984.22;5053975;28;20036;-61
2023/07/12 09:36:44;;;;;;;6.15;1.10;;;;;;;33.35;34.59;100985.56;5052590;28;20032;-61
2023/07/12 09:39:11;;;;;;;2.05;0.63;;;;;;;33.27;34.25;101001.94;5052625;28;20607;-61
2023/07/12 09:41:47;;;;;;;3.53;1.00;;;;;;;33.90;34.08;100990.31;5052230;28;20060;-61
2023/07/12 09:44:14;;;;;;;8.23;1.02;;;;;;;34.40;33.59;100980.22;5052440;28;20035;-61
2023/07/12 09:46:42;;;;;;;4.97;1.20;;;;;;;34.86;33.33;100984.53;5052274;28;20064;-61
2023/07/12 09:49:22;;;;;;;4.05;0.85;;;;;;;34.47;32.86;100986.34;5052502;28;20451;-61
2023/07/12 09:51:59;;;;;;;2.47;0.93;;;;;;;35.05;32.27;100977.19;5052809;28;20087;-61
2023/07/12 09:54:47;;;;;;;4.30;0.80;;;;;;;35.47;31.44;100978.59;5053578;28;20045;-60
2023/07/12 09:57:20;;;;;;;4.68;0.82;;;;;;;35.88;32.04;100985.50;5053471;28;20500;-61
2023/07/12 09:59:58;;;;;;;1.95;0.75;;;;;;;35.97;31.84;100986.53;5052071;28;20033;-61
2023/07/12 10:02:54;;;;;;;2.45;0.60;;;;;;;35.50;32.57;100990.00;5052273;28;20068;-61
2023/07/12 10:05:21;;;;;;;4.70;1.27;;;;;;;35.16;32.43;100988.28;5051652;28;20074;-60
2023/07/12 10:08:01;;;;;;;3.15;0.95;;;;;;;35.22;31.58;100993.53;5052179;28;20060;-61
2023/07/12 10:10:39;;;;;;;33.83;32.20;;;;;;;35.95;31.06;100997.16;5051758;28;20040;-62
2023/07/12 10:13:33;;;;;;;2.70;1.42;;;;;;;37.78;28.81;100974.09;5051742;28;20581;-61
2023/07/12 10:16:00;;;;;;;8.00;1.00;;;;;;;39.39;27.49;100979.22;5048158;28;20049;-63
2023/07/12 10:18:27;;;;;;;1.38;0.88;;;;;;;40.14;25.88;100981.25;5051828;28;20519;-61
2023/07/12 10:20:53;;;;;;;3.72;0.80;;;;;;;40.01;26.75;100979.31;5052439;28;20075;-62
2023/07/12 10:23:23;;;;;;;2.90;1.10;;;;;;;39.36;26.92;100976.22;5051732;28;20029;-62
2023/07/12 10:25:54;;;;;;;1.52;0.60;;;;;;;38.24;27.87;100977.75;5051556;28;20408;-62
2023/07/12 10:28:22;;;;;;;3.63;1.30;;;;;;;37.88;27.69;100979.56;5051409;28;20116;-62
2023/07/12 10:30:50;;;;;;;5.93;1.00;;;;;;;37.15;28.73;100966.19;5052825;28;20033;-62
2023/07/12 10:33:29;;;;;;;3.38;0.50;;;;;;;36.44;29.00;100976.56;5052816;28;20029;-62
2023/07/12 10:35:57;;;;;;;2.55;0.70;;;;;;;35.85;29.93;100972.16;5051526;28;20029;-62
2023/07/12 10:38:22;;;;;;;2.03;0.50;;;;;;;36.26;29.03;100977.34;5051494;28;20080;-62
2023/07/12 10:41:07;;;;;;;2.05;0.50;;;;;;;35.55;29.37;100978.84;5052664;28;20531;-62
2023/07/12 10:43:37;;;;;;;3.75;2.00;;;;;;;35.73;29.17;100988.44;5052676;28;20037;-63
2023/07/12 10:46:06;;;;;;;1.83;0.57;;;;;;;36.10;29.03;100988.66;5051319;28;20017;-62
2023/07/12 10:48:33;;;;;;;1.88;1.30;;;;;;;36.26;28.29;100986.56;5051942;28;20071;-62
2023/07/12 10:51:30;;;;;;;3.60;1.63;;;;;;;37.08;27.47;100982.47;5052095;28;20088;-62
2023/07/12 10:53:55;;;;;;;5.28;0.57;;;;;;;36.34;28.40;100982.28;5052470;28;20041;-62
2023/07/12 10:56:25;;;;;;;0.50;0.40;;;;;;;36.01;28.71;100995.16;5052990;28;20112;-62
2023/07/12 10:59:02;;;;;;;3.00;1.75;;;;;;;36.00;28.80;100994.31;5053853;28;20040;-62
2023/07/12 11:01:48;;;;;;;4.22;1.10;;;;;;;37.02;27.44;100988.47;5053211;28;20387;-62
2023/07/12 11:04:14;;;;;;;1.85;1.77;;;;;;;37.62;27.49;100986.69;5035408;28;20056;-62
2023/07/12 11:06:55;;;;;;;3.28;1.08;;;;;;;38.14;26.74;100988.31;5053121;28;20523;-62
2023/07/12 11:09:21;;;;;;;4.68;1.45;;;;;;;38.11;26.22;100989.75;5052894;28;20033;-62
2023/07/12 11:11:55;;;;;;;2.97;1.00;;;;;;;38.67;26.84;100983.09;5053198;28;20029;-62
2023/07/12 11:14:41;;;;;;;2.58;0.88;;;;;;;39.14;25.94;100979.81;5052285;28;20033;-62
2023/07/12 11:17:07;;;;;;;2.03;0.68;;;;;;;39.51;25.91;100982.28;5053065;28;20029;-62
2023/07/12 11:19:44;;;;;;;4.05;0.65;;;;;;;39.88;25.08;100980.25;5053569;28;20037;-61
2023/07/12 11:22:10;;;;;;;4.32;1.15;;;;;;;40.19;24.66;100988.72;5052644;28;20033;-62
2023/07/12 11:24:38;;;;;;;1.25;0.63;;;;;;;40.47;24.46;100979.75;5052561;28;20033;-62
2023/07/12 11:27:09;;;;;;;0.85;0.52;;;;;;;40.79;23.99;100980.53;5055039;28;20052;-62